KDNV/DNV METAR and TAF weather

Enter ICAO airport designator
Station Type Date Time Source
KDNV METAR 2023/02/05 12:55 UTC NOAA

KDNV 051255Z AUTO 21012KT 10SM CLR 02/M02 A2996 RMK AO2 T00151020


Station Type Date Time Source
KDNV Decoded METAR 2023/02/05 12:55 UTC NOAA

Danville, Vermilion County Airport, IL, United States (KDNV) 40-11-58N 087-35-44W
Feb 05, 2023 - 07:55 AM EST / 2023.02.05 1255 UTC
Wind: from the SSW (210 degrees) at 14 MPH (12 KT):0
Visibility: 10 mile(s):0
Sky conditions: clear
Temperature: 34.7 F (1.5 C)
Windchill: 24 F (-4 C):1
Dew Point: 28.4 F (-2.0 C)
Relative Humidity: 77%
Pressure (altimeter): 29.96 in. Hg (1014 hPa)
ob: KDNV 051255Z AUTO 21012KT 10SM CLR 02/M02 A2996 RMK AO2 T00151020
cycle: 13

Station Type Date Time Source
KDNV TAF UTC NOAA

Error!

Example: see airport list